Time;durP1;ratioP1;P1;durP2;ratioP2;P2;SDS_P1;SDS_P2;PMS_P1;PMS_P2;Temp;Humidity;BMP_temperature;BMP_pressure;BME280_temperature;BME280_humidity;BME280_pressure;Samples;Min_cycle;Max_cycle;Signal;HPM_P1;HPM_P2
2022/06/14 00:02:57;;;;;;;0.30;0.30;;;12.10;99.90;;;;;;5110531;28;20478;-68
2022/06/14 00:05:23;;;;;;;0.30;0.30;;;12.00;99.90;;;;;;5113460;28;20402;-68
2022/06/14 00:07:48;;;;;;;1.17;1.17;;;12.00;99.90;;;;;;5115258;28;20176;-69
2022/06/14 00:10:14;;;;;;;0.50;0.50;;;12.00;99.90;;;;;;5115266;28;20174;-69
2022/06/14 00:12:39;;;;;;;0.30;0.30;;;12.00;99.90;;;;;;5114892;28;20179;-69
2022/06/14 00:15:05;;;;;;;0.30;0.30;;;11.90;99.90;;;;;;5114961;28;20172;-70
2022/06/14 00:17:31;;;;;;;0.30;0.30;;;11.90;99.90;;;;;;5115035;28;20259;-69
2022/06/14 00:19:57;;;;;;;0.30;0.30;;;11.90;99.90;;;;;;5114960;28;20405;-68
2022/06/14 00:22:22;;;;;;;0.30;0.30;;;11.90;99.90;;;;;;5114599;28;20553;-69
2022/06/14 00:24:48;;;;;;;0.30;0.30;;;11.90;99.90;;;;;;5114818;28;20196;-70
2022/06/14 00:27:14;;;;;;;0.30;0.30;;;11.80;99.90;;;;;;5115045;28;20168;-69
2022/06/14 00:29:39;;;;;;;0.30;0.30;;;11.70;99.90;;;;;;5114967;28;20202;-69
2022/06/14 00:32:05;;;;;;;0.30;0.30;;;11.80;99.90;;;;;;5114533;28;20195;-70
2022/06/14 00:34:31;;;;;;;0.30;0.30;;;11.70;99.90;;;;;;5114134;28;20226;-69
2022/06/14 00:36:57;;;;;;;0.30;0.30;;;11.70;99.90;;;;;;5115152;28;20164;-69
2022/06/14 00:39:23;;;;;;;0.30;0.30;;;11.60;99.90;;;;;;5114946;28;20740;-68
2022/06/14 00:41:52;;;;;;;0.30;0.30;;;11.60;99.90;;;;;;5114783;28;20217;-68
2022/06/14 00:44:29;;;;;;;0.30;0.30;;;11.70;99.90;;;;;;5114457;28;20203;-68
2022/06/14 00:47:00;;;;;;;0.30;0.30;;;11.70;99.90;;;;;;5114655;28;20492;-69
2022/06/14 00:49:33;;;;;;;0.30;0.30;;;11.70;99.90;;;;;;5114479;28;20172;-69
2022/06/14 00:52:16;;;;;;;0.50;0.50;;;11.70;99.90;;;;;;5114728;28;20455;-69
2022/06/14 00:54:45;;;;;;;0.30;0.30;;;11.60;99.90;;;;;;5114136;27;21003;-69
2022/06/14 00:57:18;;;;;;;0.30;0.30;;;11.60;99.90;;;;;;5114482;28;20398;-68
2022/06/14 00:59:50;;;;;;;0.30;0.30;;;11.60;99.90;;;;;;5114516;28;20404;-68
2022/06/14 01:02:29;;;;;;;0.30;0.30;;;11.60;99.90;;;;;;5114451;28;20440;-69
2022/06/14 01:04:59;;;;;;;0.30;0.30;;;11.60;99.90;;;;;;5114137;27;20385;-68
2022/06/14 01:07:29;;;;;;;0.30;0.30;;;11.60;99.90;;;;;;5114347;28;20179;-69
2022/06/14 01:10:12;;;;;;;0.30;0.30;;;11.50;99.90;;;;;;5114363;28;20405;-69
2022/06/14 01:12:44;;;;;;;0.40;0.40;;;11.50;99.90;;;;;;5113975;28;20402;-70
2022/06/14 01:15:21;;;;;;;0.30;0.30;;;11.40;99.90;;;;;;5114200;28;20155;-69
2022/06/14 01:18:10;;;;;;;0.30;0.30;;;11.50;99.90;;;;;;5114206;28;20164;-69
2022/06/14 01:20:36;;;;;;;0.30;0.30;;;11.50;99.90;;;;;;5114399;28;20200;-70
2022/06/14 01:23:08;;;;;;;0.30;0.30;;;11.40;99.90;;;;;;5113565;28;20686;-69
2022/06/14 01:25:39;;;;;;;0.30;0.30;;;11.40;99.90;;;;;;5113975;28;20235;-70
2022/06/14 01:28:08;;;;;;;0.30;0.30;;;11.40;99.90;;;;;;5114117;28;20215;-69
2022/06/14 01:30:41;;;;;;;0.30;0.30;;;11.40;99.90;;;;;;5114135;28;20172;-69
2022/06/14 01:33:08;;;;;;;0.30;0.30;;;11.30;99.90;;;;;;5113799;28;20248;-69
2022/06/14 01:35:37;;;;;;;0.30;0.30;;;11.30;99.90;;;;;;5113869;28;20282;-69
2022/06/14 01:38:07;;;;;;;0.30;0.30;;;11.30;99.90;;;;;;5113958;28;20184;-69
2022/06/14 01:40:59;;;;;;;0.30;0.30;;;11.30;99.90;;;;;;5113996;28;20236;-69
2022/06/14 01:43:34;;;;;;;0.30;0.30;;;11.20;99.90;;;;;;5113698;28;20259;-69
2022/06/14 01:46:23;;;;;;;0.50;0.50;;;11.20;99.90;;;;;;5113878;28;20247;-70
2022/06/14 01:52:02;;;;;;;0.30;0.30;;;11.10;99.90;;;;;;5118350;28;20179;-68
2022/06/14 01:54:50;;;;;;;0.30;0.30;;;11.00;99.90;;;;;;5117677;28;20199;-68
2022/06/14 01:57:29;;;;;;;0.30;0.30;;;11.00;99.90;;;;;;5117913;28;20515;-69
2022/06/14 02:00:06;;;;;;;0.30;0.30;;;11.00;99.90;;;;;;5117782;28;20221;-69
2022/06/14 02:04:37;;;;;;;0.40;0.40;;;11.00;99.90;;;;;;5117634;28;20160;-69
2022/06/14 02:06:05;;;;;;;0.30;0.30;;;11.00;99.90;;;;;;5117368;28;20180;-69
2022/06/14 02:08:38;;;;;;;0.40;0.40;;;11.10;99.90;;;;;;5117459;28;20211;-68
2022/06/14 02:11:22;;;;;;;0.30;0.30;;;11.10;99.90;;;;;;5117534;28;20538;-69
2022/06/14 02:13:55;;;;;;;0.30;0.30;;;11.10;99.90;;;;;;5117152;28;20191;-69
2022/06/14 02:16:30;;;;;;;0.30;0.30;;;11.10;99.90;;;;;;5117614;28;20217;-68
2022/06/14 02:19:20;;;;;;;0.30;0.30;;;11.10;99.90;;;;;;5117587;28;20168;-69
2022/06/14 02:21:55;;;;;;;1.20;1.10;;;10.90;99.90;;;;;;5117532;28;20180;-69
2022/06/14 02:24:23;;;;;;;0.40;0.40;;;10.90;99.90;;;;;;5117047;28;20187;-68
2022/06/14 02:26:57;;;;;;;0.30;0.30;;;10.90;99.90;;;;;;5117126;27;20172;-68
2022/06/14 02:29:30;;;;;;;0.30;0.30;;;10.80;99.90;;;;;;5117263;27;20172;-69
2022/06/14 02:32:22;;;;;;;0.30;0.30;;;10.80;99.90;;;;;;5117357;28;20208;-69
2022/06/14 02:35:22;;;;;;;0.30;0.30;;;10.90;99.90;;;;;;5116803;28;20271;-69
2022/06/14 02:37:53;;;;;;;0.30;0.30;;;10.90;99.90;;;;;;5079343;27;20606;-68
2022/06/14 02:40:28;;;;;;;0.82;0.82;;;10.90;99.90;;;;;;5117203;28;20199;-69
2022/06/14 02:43:12;;;;;;;0.30;0.30;;;10.80;99.90;;;;;;5116800;28;20200;-69
2022/06/14 02:46:18;;;;;;;0.30;0.30;;;10.80;99.90;;;;;;5116847;28;20169;-69
2022/06/14 02:49:02;;;;;;;0.30;0.30;;;10.70;99.90;;;;;;5116757;28;20655;-68
2022/06/14 02:51:54;;;;;;;0.30;0.30;;;10.70;99.90;;;;;;5116872;28;20167;-68
2022/06/14 02:54:34;;;;;;;1.05;1.05;;;10.70;99.90;;;;;;5115062;28;20249;-70
2022/06/14 02:57:20;;;;;;;0.65;0.65;;;10.80;99.90;;;;;;5116752;28;20175;-70
2022/06/14 02:59:53;;;;;;;0.30;0.30;;;10.80;99.90;;;;;;5115763;28;20662;-68
2022/06/14 03:02:32;;;;;;;0.60;0.60;;;10.90;99.90;;;;;;5116783;28;20169;-69
2022/06/14 03:05:02;;;;;;;0.30;0.30;;;10.90;99.90;;;;;;5116454;28;20603;-68
2022/06/14 03:07:51;;;;;;;0.30;0.30;;;10.90;99.90;;;;;;5116629;28;20164;-69
2022/06/14 03:10:17;;;;;;;0.30;0.30;;;10.80;99.90;;;;;;5096565;28;20180;-70
2022/06/14 03:13:04;;;;;;;0.30;0.30;;;10.80;99.90;;;;;;5115891;27;20172;-68
2022/06/14 03:15:38;;;;;;;0.30;0.30;;;10.80;99.90;;;;;;5116474;28;20535;-69
2022/06/14 03:18:34;;;;;;;0.30;0.30;;;10.80;99.90;;;;;;5116289;28;20217;-68
2022/06/14 03:21:10;;;;;;;0.40;0.40;;;10.90;99.90;;;;;;5116153;28;20637;-69
2022/06/14 03:24:00;;;;;;;0.30;0.30;;;11.00;99.90;;;;;;5115745;28;20574;-69
2022/06/14 03:26:37;;;;;;;0.30;0.30;;;11.00;99.90;;;;;;5116277;28;20178;-69
2022/06/14 03:29:09;;;;;;;0.30;0.30;;;11.00;99.90;;;;;;5116085;28;20168;-68
2022/06/14 03:32:04;;;;;;;0.30;0.30;;;11.00;99.90;;;;;;5116037;28;20172;-68
2022/06/14 03:34:53;;;;;;;0.30;0.30;;;11.00;99.90;;;;;;5113430;28;20239;-68
2022/06/14 03:37:19;;;;;;;0.30;0.30;;;11.10;99.90;;;;;;5116024;27;20181;-69
2022/06/14 03:39:52;;;;;;;0.30;0.30;;;11.10;99.90;;;;;;5115748;27;20214;-69
2022/06/14 03:42:18;;;;;;;0.30;0.30;;;11.10;99.90;;;;;;5115658;28;20172;-68
2022/06/14 03:44:44;;;;;;;0.30;0.30;;;11.00;99.90;;;;;;5115605;28;20192;-69
2022/06/14 03:47:12;;;;;;;0.40;0.40;;;11.00;99.90;;;;;;5115845;28;20184;-69
2022/06/14 03:49:41;;;;;;;0.30;0.30;;;11.10;99.90;;;;;;5115655;28;20414;-69
2022/06/14 03:52:30;;;;;;;0.40;0.40;;;11.10;99.90;;;;;;5115279;28;20225;-69
2022/06/14 03:55:17;;;;;;;0.30;0.30;;;11.10;99.90;;;;;;5115625;28;20614;-69
2022/06/14 03:57:59;;;;;;;0.30;0.30;;;11.10;99.90;;;;;;5115414;28;20178;-69
2022/06/14 04:00:33;;;;;;;0.40;0.40;;;11.10;99.90;;;;;;5115467;28;20529;-68
2022/06/14 04:03:21;;;;;;;0.30;0.30;;;11.10;99.90;;;;;;5115300;28;20195;-69
2022/06/14 04:05:58;;;;;;;0.30;0.30;;;11.10;99.90;;;;;;5115256;28;20156;-68
2022/06/14 04:08:50;;;;;;;0.30;0.30;;;11.10;99.90;;;;;;5115374;28;20312;-69
2022/06/14 04:11:42;;;;;;;0.30;0.30;;;11.10;99.90;;;;;;5114279;28;20225;-69
2022/06/14 04:14:39;;;;;;;0.30;0.30;;;11.20;99.90;;;;;;5112521;28;20208;-69
2022/06/14 04:17:11;;;;;;;0.30;0.30;;;11.10;99.90;;;;;;5113684;28;20567;-67
2022/06/14 04:20:09;;;;;;;0.30;0.30;;;11.20;99.90;;;;;;5115159;28;20616;-69
2022/06/14 04:22:47;;;;;;;0.30;0.30;;;11.30;99.90;;;;;;5108810;28;20623;-69
2022/06/14 04:25:38;;;;;;;0.30;0.30;;;11.50;99.90;;;;;;5114774;28;20167;-68
2022/06/14 04:28:25;;;;;;;0.30;0.30;;;11.80;99.90;;;;;;5114828;28;21026;-70
2022/06/14 04:31:07;;;;;;;0.40;0.40;;;12.30;99.90;;;;;;5115013;28;20806;-70
2022/06/14 04:34:04;;;;;;;0.60;0.60;;;12.60;99.10;;;;;;5114511;28;20475;-69
2022/06/14 04:36:36;;;;;;;0.70;0.70;;;13.10;98.80;;;;;;5115100;28;20724;-69
2022/06/14 04:39:23;;;;;;;0.30;0.30;;;13.40;98.10;;;;;;5114761;28;20750;-70
2022/06/14 04:42:04;;;;;;;0.30;0.30;;;13.80;97.40;;;;;;5114732;28;20390;-69
2022/06/14 04:44:56;;;;;;;0.30;0.30;;;14.00;95.80;;;;;;5114438;28;20453;-70
2022/06/14 04:47:46;;;;;;;0.30;0.30;;;14.20;96.00;;;;;;5114779;27;20398;-68
2022/06/14 04:50:17;;;;;;;0.70;0.70;;;14.50;96.10;;;;;;5114195;28;20772;-69
2022/06/14 04:52:50;;;;;;;0.30;0.30;;;14.80;96.10;;;;;;5114364;28;20544;-68
2022/06/14 04:55:44;;;;;;;0.30;0.30;;;15.30;95.60;;;;;;5114416;28;20390;-70
2022/06/14 04:58:41;;;;;;;0.30;0.30;;;15.60;93.70;;;;;;5114523;28;20879;-70
2022/06/14 05:01:16;;;;;;;0.30;0.30;;;15.90;93.30;;;;;;5094300;28;20421;-69
2022/06/14 05:03:58;;;;;;;0.40;0.40;;;16.10;92.40;;;;;;5114139;28;20461;-69
2022/06/14 05:06:36;;;;;;;0.37;0.37;;;16.30;93.30;;;;;;5114425;28;20390;-69
2022/06/14 05:09:44;;;;;;;0.30;0.30;;;16.40;93.40;;;;;;5114325;28;20402;-68
2022/06/14 05:12:34;;;;;;;0.40;0.40;;;16.40;92.70;;;;;;5114175;28;20405;-70
2022/06/14 05:15:23;;;;;;;0.30;0.30;;;16.30;92.30;;;;;;5112072;28;20960;-70
2022/06/14 05:17:53;;;;;;;0.40;0.40;;;16.30;92.70;;;;;;5114411;28;20441;-69
2022/06/14 05:20:25;;;;;;;0.30;0.30;;;16.40;92.30;;;;;;5114281;28;20451;-69
2022/06/14 05:23:10;;;;;;;0.93;0.93;;;16.80;91.80;;;;;;5113686;28;20578;-68
2022/06/14 05:26:12;;;;;;;0.40;0.40;;;16.80;91.10;;;;;;5113971;28;20398;-69
2022/06/14 05:28:52;;;;;;;0.30;0.30;;;16.90;91.20;;;;;;5114232;28;20512;-70
2022/06/14 05:31:26;;;;;;;0.30;0.30;;;16.90;92.60;;;;;;5113955;28;20417;-70
2022/06/14 05:34:01;;;;;;;0.30;0.30;;;16.90;91.40;;;;;;5113651;28;20445;-69
2022/06/14 05:36:32;;;;;;;0.30;0.30;;;17.30;92.40;;;;;;5114141;28;20398;-69
2022/06/14 05:39:09;;;;;;;0.30;0.30;;;17.70;91.60;;;;;;5113921;28;20402;-70
2022/06/14 05:41:46;;;;;;;0.37;0.37;;;18.10;90.60;;;;;;5114010;28;20741;-70
2022/06/14 05:44:15;;;;;;;0.30;0.30;;;18.80;91.00;;;;;;5113832;28;20767;-69
2022/06/14 05:46:44;;;;;;;0.30;0.30;;;19.10;90.00;;;;;;5113968;28;20409;-69
2022/06/14 05:49:24;;;;;;;0.30;0.30;;;18.90;85.20;;;;;;5113984;28;20882;-68
2022/06/14 05:52:07;;;;;;;0.30;0.30;;;18.80;90.00;;;;;;5113816;28;20757;-70
2022/06/14 05:54:38;;;;;;;0.30;0.30;;;18.80;88.70;;;;;;5113678;28;20535;-69
2022/06/14 05:57:21;;;;;;;0.30;0.30;;;18.80;89.40;;;;;;5113789;28;20393;-70
2022/06/14 06:00:06;;;;;;;0.30;0.30;;;19.10;89.50;;;;;;5113920;28;20408;-69
2022/06/14 06:02:59;;;;;;;0.30;0.30;;;19.30;88.60;;;;;;5113623;28;20406;-70
2022/06/14 06:05:31;;;;;;;0.30;0.30;;;19.40;86.00;;;;;;5113639;28;20402;-70
2022/06/14 06:08:07;;;;;;;0.30;0.30;;;19.90;84.00;;;;;;5113773;28;20411;-70
2022/06/14 06:10:37;;;;;;;0.30;0.30;;;20.30;85.10;;;;;;5113835;28;20401;-70
2022/06/14 06:13:20;;;;;;;0.40;0.40;;;20.80;82.70;;;;;;5113354;28;20445;-70
2022/06/14 06:16:10;;;;;;;0.30;0.30;;;21.40;79.80;;;;;;5113753;28;20405;-69
2022/06/14 06:18:42;;;;;;;0.50;0.50;;;23.30;74.50;;;;;;5113998;28;20913;-71
2022/06/14 06:21:25;;;;;;;0.37;0.37;;;25.20;64.80;;;;;;5113699;28;20380;-71
2022/06/14 06:24:00;;;;;;;0.30;0.30;;;26.90;55.80;;;;;;5113151;28;20450;-70
2022/06/14 06:26:30;;;;;;;0.30;0.30;;;27.90;54.30;;;;;;5113912;28;20538;-71
2022/06/14 06:29:04;;;;;;;0.40;0.40;;;28.90;52.00;;;;;;5113512;28;20401;-70
2022/06/14 06:31:34;;;;;;;0.30;0.30;;;28.30;46.80;;;;;;5113723;28;20522;-71
2022/06/14 06:34:04;;;;;;;0.30;0.30;;;28.20;46.00;;;;;;5115375;28;20457;-70
2022/06/14 06:37:07;;;;;;;0.30;0.30;;;28.40;49.50;;;;;;5116993;28;20496;-71
2022/06/14 06:39:55;;;;;;;0.37;0.37;;;28.40;45.20;;;;;;5117022;28;20453;-70
2022/06/14 06:42:41;;;;;;;0.37;0.37;;;28.70;47.10;;;;;;5116985;28;20515;-71
2022/06/14 06:45:22;;;;;;;0.30;0.30;;;29.30;44.70;;;;;;5117131;27;20747;-70
2022/06/14 06:48:11;;;;;;;0.40;0.40;;;30.30;42.90;;;;;;5116984;28;20989;-71
2022/06/14 06:50:45;;;;;;;0.50;0.50;;;31.70;40.90;;;;;;5116914;28;20432;-70
2022/06/14 06:53:19;;;;;;;0.43;0.43;;;32.70;40.50;;;;;;5116456;28;20456;-71
2022/06/14 06:55:57;;;;;;;0.37;0.37;;;33.40;36.50;;;;;;5116953;28;20871;-70
2022/06/14 06:58:25;;;;;;;0.30;0.30;;;34.20;35.00;;;;;;5116759;28;20402;-70
2022/06/14 07:00:58;;;;;;;1.23;1.13;;;33.80;35.20;;;;;;5116599;28;20809;-70
2022/06/14 07:03:44;;;;;;;0.30;0.30;;;33.60;33.10;;;;;;5116366;27;20426;-70
2022/06/14 07:06:25;;;;;;;0.50;0.50;;;33.90;33.60;;;;;;5116688;28;20413;-71
2022/06/14 07:09:03;;;;;;;0.40;0.40;;;33.80;34.00;;;;;;5116679;28;20433;-72
2022/06/14 07:12:01;;;;;;;0.30;0.30;;;34.30;32.60;;;;;;5116503;28;20414;-70
2022/06/14 07:15:02;;;;;;;0.40;0.40;;;34.70;34.10;;;;;;5115727;28;20481;-71
2022/06/14 07:17:32;;;;;;;0.40;0.40;;;35.90;32.20;;;;;;5116426;28;20397;-71
2022/06/14 07:20:05;;;;;;;0.90;0.90;;;35.50;31.60;;;;;;5116499;27;20422;-71
2022/06/14 07:22:41;;;;;;;0.30;0.30;;;35.30;30.80;;;;;;5115793;28;20417;-71
2022/06/14 07:25:24;;;;;;;1.13;1.13;;;35.60;31.50;;;;;;5115977;28;20959;-72
2022/06/14 07:28:15;;;;;;;0.40;0.30;;;34.70;29.60;;;;;;5116296;28;20463;-71
2022/06/14 07:30:49;;;;;;;0.40;0.40;;;34.10;33.40;;;;;;5115919;28;20402;-72
2022/06/14 07:33:17;;;;;;;0.30;0.30;;;33.30;32.60;;;;;;5115989;28;20477;-71
2022/06/14 07:35:50;;;;;;;2.00;1.20;;;33.30;33.20;;;;;;5115965;28;20434;-71
2022/06/14 07:38:24;;;;;;;0.30;0.30;;;33.30;32.50;;;;;;5116043;28;20409;-71
2022/06/14 07:40:57;;;;;;;0.30;0.30;;;34.60;32.60;;;;;;5116037;28;20485;-70
2022/06/14 07:43:39;;;;;;;0.30;0.30;;;35.00;30.60;;;;;;5115597;27;20457;-71
2022/06/14 07:46:14;;;;;;;0.43;0.43;;;35.60;31.50;;;;;;5116000;28;20405;-72
2022/06/14 07:48:58;;;;;;;0.30;0.30;;;36.40;31.30;;;;;;5115902;28;20400;-71
2022/06/14 07:51:32;;;;;;;0.30;0.30;;;36.70;29.40;;;;;;5115785;28;20398;-72
2022/06/14 07:54:35;;;;;;;0.37;0.37;;;36.30;29.90;;;;;;5115315;28;20464;-71
2022/06/14 07:57:09;;;;;;;0.30;0.30;;;36.80;30.90;;;;;;5115758;28;20766;-71
2022/06/14 07:59:48;;;;;;;0.40;0.40;;;37.20;28.90;;;;;;5115531;28;20498;-72
2022/06/14 08:02:26;;;;;;;0.40;0.40;;;36.60;29.40;;;;;;5115246;28;20404;-71
2022/06/14 08:05:02;;;;;;;0.37;0.37;;;36.20;29.50;;;;;;5115451;28;20790;-72
2022/06/14 08:07:31;;;;;;;0.30;0.30;;;36.50;29.70;;;;;;5115445;28;20761;-71
2022/06/14 08:10:06;;;;;;;0.30;0.30;;;36.80;29.60;;;;;;5115450;28;20406;-72
2022/06/14 08:12:47;;;;;;;0.40;0.40;;;37.20;29.90;;;;;;5114883;28;20450;-72
2022/06/14 08:15:23;;;;;;;0.30;0.30;;;37.60;28.10;;;;;;5115499;28;20386;-72
2022/06/14 08:18:01;;;;;;;0.37;0.30;;;36.90;27.80;;;;;;5115409;28;20484;-72
2022/06/14 08:20:46;;;;;;;0.80;0.80;;;37.10;28.60;;;;;;5115124;28;20390;-70
2022/06/14 08:23:35;;;;;;;0.37;0.30;;;37.00;28.20;;;;;;5114797;28;20446;-71
2022/06/14 08:26:26;;;;;;;0.60;0.40;;;36.90;29.80;;;;;;5107847;28;20509;-71
2022/06/14 08:29:23;;;;;;;0.30;0.30;;;37.20;30.20;;;;;;5109781;28;20421;-72
2022/06/14 08:31:52;;;;;;;0.57;0.40;;;37.10;28.80;;;;;;5114868;28;20835;-72
2022/06/14 08:34:25;;;;;;;0.37;0.33;;;37.70;28.70;;;;;;5114422;28;20478;-71
2022/06/14 08:37:00;;;;;;;0.30;0.30;;;38.20;27.90;;;;;;5114978;28;20805;-71
2022/06/14 08:39:42;;;;;;;1.07;1.07;;;38.10;27.10;;;;;;5114810;28;20491;-71
2022/06/14 08:42:20;;;;;;;0.40;0.30;;;37.10;29.20;;;;;;5114910;28;20398;-70
2022/06/14 08:44:52;;;;;;;0.83;0.70;;;37.40;29.00;;;;;;5114504;28;20478;-70
2022/06/14 08:47:52;;;;;;;0.60;0.60;;;36.60;28.80;;;;;;5114672;28;20398;-72
2022/06/14 08:50:46;;;;;;;0.40;0.40;;;36.50;29.50;;;;;;5114713;28;20390;-70
2022/06/14 08:53:34;;;;;;;0.40;0.30;;;36.60;28.40;;;;;;5114185;28;20445;-71
2022/06/14 08:56:32;;;;;;;0.40;0.40;;;36.70;28.80;;;;;;5113909;28;20386;-71
2022/06/14 08:59:09;;;;;;;0.30;0.30;;;36.60;29.80;;;;;;5114610;28;20401;-72
2022/06/14 09:01:53;;;;;;;0.60;0.60;;;36.60;28.10;;;;;;5114673;28;20389;-70
2022/06/14 09:04:38;;;;;;;0.30;0.30;;;36.80;28.60;;;;;;5114195;28;20418;-72
2022/06/14 09:07:31;;;;;;;0.50;0.50;;;36.80;27.10;;;;;;5114635;28;20397;-70
2022/06/14 09:10:28;;;;;;;0.30;0.30;;;36.20;26.90;;;;;;5114459;28;20759;-71
2022/06/14 09:13:02;;;;;;;0.90;0.90;;;36.10;27.90;;;;;;5114137;28;20742;-71
2022/06/14 09:16:05;;;;;;;0.40;0.30;;;36.30;27.20;;;;;;5114116;28;20408;-71
2022/06/14 09:18:48;;;;;;;0.30;0.30;;;36.50;26.90;;;;;;5114228;28;20394;-71
2022/06/14 09:21:32;;;;;;;0.40;0.40;;;37.70;29.00;;;;;;5114255;28;20776;-71
2022/06/14 09:24:10;;;;;;;0.87;0.60;;;37.70;26.30;;;;;;5113698;28;20984;-71
2022/06/14 09:26:53;;;;;;;0.40;0.40;;;36.50;27.10;;;;;;5114145;28;20398;-70
2022/06/14 09:29:56;;;;;;;0.50;0.50;;;36.00;28.10;;;;;;5114130;28;20396;-72
2022/06/14 09:35:59;;;;;;;0.77;0.60;;;34.70;28.50;;;;;;5113841;28;20500;-71
2022/06/14 09:39:03;;;;;;;0.40;0.30;;;33.70;31.40;;;;;;5113933;28;20469;-71
2022/06/14 09:41:53;;;;;;;0.40;0.40;;;33.80;30.40;;;;;;5114008;28;20481;-71
2022/06/14 09:44:39;;;;;;;0.30;0.30;;;34.20;29.10;;;;;;5113619;28;20483;-70
2022/06/14 09:47:52;;;;;;;0.47;0.47;;;34.20;29.20;;;;;;5113920;28;20889;-71
2022/06/14 09:50:23;;;;;;;0.30;0.30;;;33.30;30.60;;;;;;5113986;28;20441;-69
2022/06/14 09:53:08;;;;;;;0.30;0.30;;;33.80;29.80;;;;;;5113439;28;20952;-71
2022/06/14 09:55:52;;;;;;;0.40;0.40;;;33.80;29.00;;;;;;5113874;28;20386;-70
2022/06/14 09:58:48;;;;;;;0.70;0.70;;;33.90;29.80;;;;;;5113890;28;20817;-71
2022/06/14 10:01:45;;;;;;;1.80;0.80;;;33.10;30.00;;;;;;5113954;28;20432;-71
2022/06/14 10:04:32;;;;;;;0.40;0.40;;;32.70;32.80;;;;;;5113619;28;20440;-71
2022/06/14 10:07:37;;;;;;;0.30;0.30;;;32.50;31.70;;;;;;5113869;28;20444;-70
2022/06/14 10:10:13;;;;;;;0.40;0.40;;;31.80;30.10;;;;;;5115558;28;20410;-71
2022/06/14 10:13:00;;;;;;;0.30;0.30;;;31.40;30.60;;;;;;5117543;28;20450;-71
2022/06/14 10:16:05;;;;;;;0.30;0.30;;;30.70;31.60;;;;;;5117497;28;20441;-71
2022/06/14 10:18:40;;;;;;;0.70;0.70;;;31.00;32.80;;;;;;5117559;28;20477;-71
2022/06/14 10:21:13;;;;;;;0.40;0.40;;;30.50;32.50;;;;;;5117369;28;20408;-70
2022/06/14 10:23:49;;;;;;;0.47;0.47;;;30.10;34.70;;;;;;5116942;28;21000;-69
2022/06/14 10:29:39;;;;;;;0.30;0.30;;;29.40;33.30;;;;;;5117687;28;20389;-71
2022/06/14 10:32:26;;;;;;;0.40;0.40;;;29.90;34.40;;;;;;5116950;28;20484;-70
2022/06/14 10:35:31;;;;;;;0.40;0.40;;;30.60;34.10;;;;;;5116922;28;20797;-71
2022/06/14 10:38:41;;;;;;;0.30;0.30;;;30.40;32.30;;;;;;5117194;28;20870;-70
2022/06/14 10:41:18;;;;;;;2.20;2.00;;;30.30;35.00;;;;;;5107780;27;20470;-71
2022/06/14 10:44:04;;;;;;;0.30;0.30;;;30.60;35.00;;;;;;5116846;28;20449;-71
2022/06/14 10:46:39;;;;;;;0.30;0.30;;;30.90;36.50;;;;;;5116830;28;20389;-71
2022/06/14 10:49:26;;;;;;;0.30;0.30;;;30.60;34.70;;;;;;5116857;28;20398;-70
2022/06/14 10:52:18;;;;;;;0.37;0.37;;;29.90;32.60;;;;;;5117027;28;20406;-69
2022/06/14 10:54:49;;;;;;;0.40;0.40;;;29.10;34.60;;;;;;5116495;28;20449;-70
2022/06/14 10:57:51;;;;;;;0.30;0.30;;;28.80;32.40;;;;;;5116860;27;20405;-70
2022/06/14 11:00:26;;;;;;;0.30;0.30;;;28.80;36.70;;;;;;5116933;28;20381;-70
2022/06/14 11:03:18;;;;;;;0.53;0.40;;;28.50;38.30;;;;;;5116475;28;20771;-69
2022/06/14 11:06:08;;;;;;;0.57;0.57;;;28.10;35.30;;;;;;5116667;27;20413;-70
2022/06/14 11:08:42;;;;;;;0.30;0.30;;;27.60;37.20;;;;;;5116559;28;20398;-71
2022/06/14 11:11:21;;;;;;;0.30;0.30;;;27.00;36.00;;;;;;5116703;28;20931;-70
2022/06/14 11:14:29;;;;;;;0.30;0.30;;;26.60;37.90;;;;;;5116027;28;20513;-71
2022/06/14 11:17:25;;;;;;;0.30;0.30;;;26.20;39.10;;;;;;5110682;28;20410;-70
2022/06/14 11:20:23;;;;;;;0.30;0.30;;;25.90;38.40;;;;;;5115953;28;20368;-69
2022/06/14 11:22:58;;;;;;;0.30;0.30;;;25.80;40.30;;;;;;5115985;28;20410;-70
2022/06/14 11:26:02;;;;;;;0.30;0.30;;;25.60;38.30;;;;;;5116387;28;20377;-69
2022/06/14 11:28:52;;;;;;;0.30;0.30;;;25.70;42.70;;;;;;5079442;28;20472;-70
2022/06/14 11:31:33;;;;;;;0.30;0.30;;;25.80;41.80;;;;;;5116091;28;20394;-69
2022/06/14 11:34:14;;;;;;;0.30;0.30;;;25.80;41.40;;;;;;5115741;28;20474;-70
2022/06/14 11:37:23;;;;;;;0.30;0.30;;;26.00;40.70;;;;;;5116105;28;20462;-71
2022/06/14 11:40:12;;;;;;;0.40;0.40;;;25.90;38.80;;;;;;5116047;28;20754;-70
2022/06/14 11:43:22;;;;;;;1.73;0.90;;;26.20;40.20;;;;;;5115742;28;20393;-70
2022/06/14 11:46:14;;;;;;;0.33;0.30;;;25.90;40.90;;;;;;5115866;27;20372;-71
2022/06/14 11:48:50;;;;;;;0.30;0.30;;;26.00;40.60;;;;;;5115675;28;20400;-70
2022/06/14 11:51:27;;;;;;;0.30;0.30;;;26.10;38.80;;;;;;5115819;28;20455;-70
2022/06/14 11:54:12;;;;;;;0.30;0.30;;;26.20;41.10;;;;;;5115316;28;20943;-70
2022/06/14 11:57:15;;;;;;;0.30;0.30;;;26.40;39.30;;;;;;5115730;28;20845;-70
2022/06/14 11:59:48;;;;;;;0.30;0.30;;;26.40;39.30;;;;;;5114032;28;20413;-70
2022/06/14 12:02:38;;;;;;;0.80;0.50;;;26.30;38.70;;;;;;5113971;28;20784;-70
2022/06/14 12:05:19;;;;;;;0.30;0.30;;;26.00;42.60;;;;;;5115379;28;20389;-71
2022/06/14 12:08:13;;;;;;;0.30;0.30;;;25.90;39.50;;;;;;5115430;28;20379;-70
2022/06/14 12:10:50;;;;;;;0.30;0.30;;;25.90;42.00;;;;;;5111227;28;20930;-70
2022/06/14 12:13:16;;;;;;;0.30;0.30;;;26.00;39.60;;;;;;5115005;28;20429;-71
2022/06/14 12:15:53;;;;;;;0.30;0.30;;;26.00;40.00;;;;;;5115103;28;20387;-71
2022/06/14 12:18:21;;;;;;;0.30;0.30;;;25.90;39.40;;;;;;5115533;28;20170;-69
2022/06/14 12:20:58;;;;;;;0.30;0.30;;;25.80;43.10;;;;;;5115019;28;20872;-70
2022/06/14 12:23:31;;;;;;;0.40;0.40;;;26.00;40.70;;;;;;5114814;28;20769;-70
2022/06/14 12:29:17;;;;;;;0.30;0.30;;;25.70;38.80;;;;;;5114725;28;20433;-70
2022/06/14 12:32:04;;;;;;;0.30;0.30;;;25.40;40.00;;;;;;5114324;28;20437;-70
2022/06/14 12:34:46;;;;;;;2.00;0.50;;;25.40;40.20;;;;;;5114832;28;20444;-70
2022/06/14 12:37:30;;;;;;;0.30;0.30;;;25.60;42.10;;;;;;5114992;28;20819;-71
2022/06/14 12:40:16;;;;;;;0.30;0.30;;;25.70;40.80;;;;;;5115028;28;20711;-70
2022/06/14 12:42:52;;;;;;;0.30;0.30;;;25.70;40.10;;;;;;5114599;28;20379;-70
2022/06/14 12:45:22;;;;;;;0.37;0.37;;;25.70;39.60;;;;;;5114516;28;20722;-69
2022/06/14 12:47:50;;;;;;;0.30;0.30;;;25.50;40.20;;;;;;5113485;28;20384;-70
2022/06/14 12:50:24;;;;;;;0.30;0.30;;;25.40;39.00;;;;;;5114565;28;20821;-70
2022/06/14 12:52:58;;;;;;;0.30;0.30;;;25.40;44.10;;;;;;5114335;28;20784;-70
2022/06/14 12:55:36;;;;;;;0.50;0.50;;;25.60;40.30;;;;;;5114416;28;20359;-70
2022/06/14 12:58:11;;;;;;;0.50;0.50;;;25.40;38.90;;;;;;5114635;28;20403;-70
2022/06/14 13:01:02;;;;;;;0.30;0.30;;;25.50;40.20;;;;;;5114303;28;20484;-69
2022/06/14 13:03:43;;;;;;;0.30;0.30;;;25.60;38.60;;;;;;5114179;28;20395;-71
2022/06/14 13:06:31;;;;;;;0.50;0.50;;;25.80;38.70;;;;;;5114755;28;20389;-70
2022/06/14 13:09:05;;;;;;;0.30;0.30;;;26.00;44.10;;;;;;5114119;28;20430;-70
2022/06/14 13:11:46;;;;;;;0.40;0.40;;;26.20;38.80;;;;;;5113095;28;20448;-70
2022/06/14 13:14:23;;;;;;;0.40;0.40;;;25.90;41.40;;;;;;5113990;28;20432;-70
2022/06/14 13:17:15;;;;;;;0.30;0.30;;;26.00;39.90;;;;;;5114192;28;20380;-69
2022/06/14 13:19:50;;;;;;;0.97;0.40;;;26.00;37.70;;;;;;5114122;28;20474;-71
2022/06/14 13:22:34;;;;;;;0.50;0.50;;;26.00;39.30;;;;;;5113999;28;20776;-69
2022/06/14 13:24:59;;;;;;;0.40;0.40;;;25.80;39.00;;;;;;5113986;28;20787;-70
2022/06/14 13:28:06;;;;;;;0.30;0.30;;;25.50;39.70;;;;;;5114230;28;20531;-71
2022/06/14 13:31:09;;;;;;;0.30;0.30;;;25.50;39.10;;;;;;5114229;28;20253;-70
2022/06/14 13:33:58;;;;;;;0.60;0.60;;;25.50;38.90;;;;;;5113716;28;20513;-70
2022/06/14 13:36:40;;;;;;;0.30;0.30;;;25.60;38.90;;;;;;5114174;28;20405;-71
2022/06/14 13:39:06;;;;;;;0.30;0.30;;;25.70;41.50;;;;;;5114129;28;20404;-71
2022/06/14 13:42:00;;;;;;;0.50;0.50;;;25.60;41.00;;;;;;5113774;28;20407;-70
2022/06/14 13:44:49;;;;;;;0.40;0.40;;;25.50;40.00;;;;;;5118140;28;20553;-69
2022/06/14 13:47:43;;;;;;;0.30;0.30;;;25.40;39.10;;;;;;5096438;28;20403;-71
2022/06/14 13:50:29;;;;;;;1.90;0.93;;;25.40;40.20;;;;;;5117983;28;20421;-71
2022/06/14 13:53:09;;;;;;;0.33;0.33;;;25.50;38.90;;;;;;5117812;27;20783;-69
2022/06/14 13:55:47;;;;;;;0.30;0.30;;;25.40;39.10;;;;;;5117906;27;20440;-70
2022/06/14 13:58:16;;;;;;;0.30;0.30;;;25.50;38.70;;;;;;5118307;28;20402;-70
2022/06/14 14:00:50;;;;;;;0.30;0.30;;;25.50;36.70;;;;;;5117792;28;20390;-70
2022/06/14 14:03:39;;;;;;;0.30;0.30;;;25.60;38.50;;;;;;5117592;28;20464;-70
2022/06/14 14:06:25;;;;;;;0.40;0.40;;;25.60;38.50;;;;;;5117808;28;20732;-69
2022/06/14 14:08:56;;;;;;;0.80;0.63;;;25.70;38.20;;;;;;5118090;28;20751;-70
2022/06/14 14:11:31;;;;;;;0.30;0.30;;;25.70;39.10;;;;;;5116420;28;20735;-70
2022/06/14 14:14:27;;;;;;;0.30;0.30;;;25.60;40.50;;;;;;5115108;28;20460;-70